Logo AVAMET
Benvolgut visitant, si us plau, ingressa Recuperar contrasenya
AVAMET paisatges

Benifairó de la Valldigna

Dades diàries. Acumulats / Últims 30 dies disponibles

Data Temperatura (°C) Humitat rel. (%) Pressió rel. (hPa) Vent (km/h) Precipitació
Mínima Mitjana Màxima Amplitud
tèrmica
Mínima Mitjana Màxima Mínima Mitjana Màxima Predom. Mitjana Ràfega
màxima
Total
(mm)
Índex-n
Mínima Mitjana Màxima Mínima Mitjana Màxima n
0 a 1
P0 max
mm 5'
Dades mensuals acumulades fins l'últim dia disponible
04/2020 8,1 10,4 12,3 13,7 15,7 18,5 20,6 12,5 51 77 94 1.007 1.014 1.023   3,8 35,1 6,6
Dades anuals acumulades fins l'últim dia disponible
2020 3,7 9,5 17,1 13,7 10,7 19,1 26,5 22,8 21 73 97 997 1.019 1.032   5,1 72,2 413,8
Últims 30 dies disponibles
06-04-2020 10,2     14,3     18,8 8,6 68 80 91 1.018 1.020 1.023 NE 3,6 27,8 0,0
05-04-2020 9,6     13,3     17,8 8,2 60 76 91 1.017 1.018 1.019 NE 3,5 24,1 0,0
04-04-2020 8,1     13,4     19,0 10,9 62 77 92 1.015 1.016 1.018 ENE 4,7 31,4 0,0
03-04-2020 10,6     13,8     18,8 8,2 51 73 94 1.012 1.013 1.016 E 4,0 35,1 2,3
02-04-2020 11,7     12,8     15,7 4,0 74 84 93 1.008 1.010 1.013 E 2,7 25,9 0,7
01-04-2020 12,3     14,7     20,6 8,3 57 75 92 1.007 1.009 1.010 NE 4,4 27,8 3,6 0,51 0,50
31-03-2020 7,7     10,3     13,8 6,1 83 88 93 1.007 1.008 1.011 NO 3,1 20,4 5,0 0,26 0,30
30-03-2020 8,9     12,9     17,5 8,6 55 74 92 1.010 1.011 1.012 ENE 5,2 25,9 2,3
29-03-2020 6,2     15,5     23,8 17,6 35 62 88 1.009 1.013 1.017 O 3,4 25,9 0,0
28-03-2020 4,9     10,9     17,1 12,2 49 72 94 1.014 1.015 1.017 N 1,9 20,4 0,2
27-03-2020 7,8     9,3     10,7 2,9 76 85 93 1.010 1.011 1.014 NNO 1,1 27,8 5,4 0,25 0,50
26-03-2020 7,3     11,2     18,0 10,7 36 65 94 1.004 1.007 1.012 N 2,9 27,8 0,0
25-03-2020 8,9     9,8     12,4 3,5 76 85 93 1.012 1.014 1.015 NE 1,2 18,5 17,9 0,37 0,70
24-03-2020 12,3     13,5     14,7 2,4 74 84 94 1.012 1.014 1.015 NE 13,1 40,7 16,5 0,26 1,80
23-03-2020 10,8     13,4     17,1 6,3 82 89 96 1.011 1.013 1.014 ENE 4,8 31,4 6,8 0,46 0,90
22-03-2020 10,4     11,9     13,5 3,1 86 91 95 1.009 1.010 1.012 NE 0,6 16,6 40,9 0,56 3,80
21-03-2020 10,6     12,6     13,7 3,1 83 89 94 1.009 1.012 1.015 E 0,6 25,9 13,8 0,42 1,70
20-03-2020 12,9     14,1     16,5 3,6 70 80 90 1.014 1.016 1.017 ENE 4,1 20,4 0,0
19-03-2020 12,6     13,8     15,6 3,0 82 87 92 1.018 1.020 1.023 NE 2,7 20,4 0,0
18-03-2020 12,8     14,4     16,7 3,9 72 82 92 1.022 1.024 1.025 NE 5,6 25,9 0,0
17-03-2020 8,9     11,8     14,7 5,8 90 93 95 1.017 1.022 1.026 NNE 4,9 37,0 12,4 0,29 0,50
16-03-2020 8,7     11,9     16,2 7,5 76 84 91 1.008 1.011 1.017 ONO 2,2 31,4 4,7
15-03-2020 12,0     15,2     19,1 7,1 69 80 91 1.010 1.014 1.018 NE 3,2 25,9 0,0
14-03-2020 9,4     14,4     19,6 10,2 65 80 94 1.016 1.017 1.019 NE 3,5 27,8 0,0
13-03-2020 11,0     14,4     18,2 7,2 68 81 93 1.015 1.017 1.018 NE 2,1 18,5 0,0
12-03-2020 10,2     15,9     22,3 12,1 54 73 92 1.014 1.017 1.020 NE 3,1 24,1 0,0
11-03-2020 10,3     16,9     25,3 15,0 40 64 87 1.018 1.020 1.020 NE 3,9 27,8 0,0
10-03-2020 8,8     15,9     25,5 16,7 31 53 75 1.019 1.021 1.023 ONO 2,1 18,5 0,0
09-03-2020 10,4     16,6     22,2 11,8 34 53 71 1.017 1.019 1.021 O 3,0 20,4 0,0
08-03-2020 8,1     15,8     23,4 15,3 28 52 76 1.017 1.020 1.022 ONO 4,2 25,9 0,0
Últims 13 mesos disponibles
03/2020 4,9 10,5 17,1 14,3 10,7 18,7 25,5 20,6 42 71 93 1.004 1.014 1.024 NE 5,7 72,2 125,9
02/2020 5,7 9,3 13,8 14,8 14,3 21,0 26,5 20,8 48 69 87 1.011 1.023 1.030 O 3,6 35,1 8,0
01/2020 3,7 7,7 13,3 10,9 12,4 14,9 18,6 14,9 56 79 94 1.012 1.022 1.029 4,1 72,2 273,3
12/2019 5,1 10,2 18,4 14,0 12,9 18,8 26,0 20,9 51 72 92 999 1.016 1.030 W 6,2 64,8 347,5
11/2019 4,0 11,7 21,4 15,6 15,6 20,0 27,4 23,4 48 60 79 996 1.008 1.016 W 8,6 48,1 14,0
10/2019 11,2 15,6 19,7 20,1 15,9 25,6 34,6 23,4 42 72 88 1.005 1.014 1.019 W 3,4 37,0 35,4
09/2019 14,5 19,8 22,6 23,9 23,2 28,4 34,6 20,1 42 76 89 1.007 1.014 1.021 NE 4,5 59,2 94,0
08/2019 18,3 21,9 26,7 26,9 27,9 32,1 41,2 22,9 46 72 82 1.007 1.012 1.017 NE 4,9 38,9 9,4
07/2019 20,3 22,2 25,1 27,2 28,7 32,1 37,1 16,8 44 69 80 1.003 1.011 1.018 NE 5,5 44,4 0,4
06/2019 12,5 17,2 22,8 23,1 21,8 28,6 36,2 23,7 38 66 79 1.006 1.012 1.019 NE 5,5 42,6 2,0
05/2019 8,6 13,6 19,9 19,2 19,1 24,5 33,2 24,6 47 68 85 1.002 1.012 1.021 ENE 5,4 42,5 29,8
04/2019 7,4 11,2 14,4 15,6 14,7 20,4 29,9 22,5 43 69 95 997 1.010 1.022 NE 6,6 53,6 297,5
03/2019 4,8 7,9 13,7 14,4 13,8 20,5 29,4 24,6 41 62 91 1.007 1.020 1.027 NE 4,1 44,4 48,4
Tots els anys disponibles
2019 -0,9 13,7 26,7 18,6 12,9 24,0 41,2 42,1 36 68 95 992 1.014 1.031 NE 5,3 64,8 880,1
2018 1,6 9,1 20,6 18,5 23,5 30,0 38,1 36,5 72 75 81 1.012 1.015 1.022 W 5,0 66,6 1.166,8
2017 -0,5 13,0 27,3 17,6 9,2 22,8 37,4 37,9 N 3,1 64,8 448,4
2016 3,7 15,2 25,6 19,7 12,9 24,7 40,3 36,6 4,5 64,8 803,4
2009 -0,7 12,8 24,6 17,4 5,2 22,8 38,4 39,1 4,0 75,6 1.106,5
2008 735,6
Temperatura (°C)
Humitat relativa (%)
Velocitat del vent i ràfega màxima (km/h)
Direcció del vent (°)
Pressió (hPa)
Precipitació (mm)
Nota sobre les dades: s'avisa a l'usuari de la provisionalitat i no oficialitat d'aquestes dades
Logo AVAMET blanc
Web allotjada a Sollutia
Llicència de Creative CommonsLa web d'AVAMET i els seus continguts estan subjectes a una llicència de
Reconeixement - No Comercial - Compartir igual
Últimes estacions:  Benifaió (Inforatge), Altea - Com. Regants (Soci), Almoines (Inforatge), Beniparrell (Inforatge), Albal (Inforatge), La Vilavella (Soci), la Serratella (soci) - - -